Time;durP1;ratioP1;P1;durP2;ratioP2;P2;SDS_P1;SDS_P2;PMS_P1;PMS_P2;Temp;Humidity;BMP_temperature;BMP_pressure;BME280_temperature;BME280_humidity;BME280_pressure;Samples;Min_cycle;Max_cycle;Signal;HPM_P1;HPM_P2
2023/04/26 00:02:09;;;;;;;7.70;4.07;;;;;;;;;;4893403;29;20029;-96
2023/04/26 00:04:34;;;;;;;8.50;4.13;;;;;;;;;;4889736;29;20487;-94
2023/04/26 00:07:12;;;;;;;8.82;4.00;;;;;;;;;;4901250;29;20442;-93
2023/04/26 00:09:40;;;;;;;8.30;3.80;;;;;;;;;;4906840;29;20073;-94
2023/04/26 00:12:51;;;;;;;7.75;4.03;;;;;;;;;;4907448;29;20032;-96
2023/04/26 00:18:25;;;;;;;7.15;4.00;;;;;;;;;;4817962;29;20077;-95
2023/04/26 00:20:52;;;;;;;9.50;4.03;;;;;;;;;;4857270;29;20052;-91
2023/04/26 00:23:18;;;;;;;7.40;4.10;;;;;;;;;;4853170;29;20045;-96
2023/04/26 00:25:44;;;;;;;9.13;4.10;;;;;;;;;;4854366;29;20033;-92
2023/04/26 00:28:13;;;;;;;7.53;4.03;;;;;;;;;;4869072;29;20119;-96
2023/04/26 00:33:33;;;;;;;8.30;4.00;;;;;;;;;;4865468;29;20037;-95
2023/04/26 00:36:24;;;;;;;;;;;;;;;;;;;;;
2023/04/26 00:39:16;;;;;;;6.78;3.70;;;;;;;;;;4855795;29;20105;-94
2023/04/26 00:41:45;;;;;;;8.68;3.80;;;;;;;;;;4867173;29;20499;-93
2023/04/26 00:44:22;;;;;;;8.27;3.90;;;;;;;;;;4864238;29;20364;-95
2023/04/26 00:46:49;;;;;;;10.93;4.35;;;;;;;;;;4834692;29;20065;-92
2023/04/26 00:49:33;;;;;;;7.38;3.80;;;;;;;;;;4850555;29;20445;-93
2023/04/26 00:51:59;;;;;;;8.40;4.40;;;;;;;;;;4850206;29;20038;-93
2023/04/26 00:54:46;;;;;;;10.07;4.40;;;;;;;;;;4850013;29;20026;-96
2023/04/26 00:57:32;;;;;;;;;;;;;;;;;;;;;
2023/04/26 01:00:21;;;;;;;7.55;4.03;;;;;;;;;;4865819;29;20128;-95
2023/04/26 01:03:26;;;;;;;9.38;4.70;;;;;;;;;;4849731;29;20029;-94
2023/04/26 01:06:23;;;;;;;10.85;4.40;;;;;;;;;;4842655;29;20129;-95
2023/04/26 01:08:59;;;;;;;12.20;4.97;;;;;;;;;;4846198;29;20100;-96
2023/04/26 01:11:25;;;;;;;8.63;4.35;;;;;;;;;;4851227;29;20041;-93
2023/04/26 01:14:17;;;;;;;11.10;4.80;;;;;;;;;;4851819;29;20057;-94
2023/04/26 01:16:49;;;;;;;12.65;4.45;;;;;;;;;;4874072;29;20053;-96
2023/04/26 01:19:38;;;;;;;;;;;;;;;;;;;;;
2023/04/26 01:22:05;;;;;;;12.52;4.90;;;;;;;;;;4870338;29;20089;-94
2023/04/26 01:24:35;;;;;;;7.35;4.13;;;;;;;;;;4865938;29;20394;-96
2023/04/26 01:27:03;;;;;;;9.05;4.65;;;;;;;;;;4867061;29;20029;-92
2023/04/26 01:32:28;;;;;;;10.10;4.38;;;;;;;;;;4873520;29;20061;-94
2023/04/26 01:38:00;;;;;;;9.52;4.18;;;;;;;;;;4850594;29;20065;-95
2023/04/26 01:40:29;;;;;;;12.80;4.47;;;;;;;;;;4847690;29;20041;-96
2023/04/26 01:42:58;;;;;;;12.48;4.97;;;;;;;;;;4847371;29;20022;-96
2023/04/26 01:45:42;;;;;;;12.25;4.95;;;;;;;;;;4869481;29;20041;-95
2023/04/26 01:48:37;;;;;;;11.63;4.82;;;;;;;;;;4854319;29;20029;-95
2023/04/26 01:51:23;;;;;;;12.60;4.57;;;;;;;;;;4858275;29;20128;-96
2023/04/26 01:53:51;;;;;;;13.27;4.78;;;;;;;;;;4848962;29;20070;-95
2023/04/26 01:56:18;;;;;;;12.95;5.18;;;;;;;;;;4853619;29;20026;-95
2023/04/26 01:58:47;;;;;;;11.45;4.97;;;;;;;;;;4857854;29;20010;-96
2023/04/26 02:01:29;;;;;;;;;;;;;;;;;;;;;
2023/04/26 02:04:20;;;;;;;;;;;;;;;;;;;;;
2023/04/26 02:07:00;;;;;;;11.73;4.80;;;;;;;;;;4872800;29;20029;-96
2023/04/26 02:09:26;;;;;;;15.75;5.05;;;;;;;;;;4845360;29;20038;-93
2023/04/26 02:11:52;;;;;;;16.17;5.65;;;;;;;;;;4856808;29;20042;-94
2023/04/26 02:14:19;;;;;;;10.98;5.35;;;;;;;;;;4855099;29;20768;-94
2023/04/26 02:16:48;;;;;;;11.98;5.07;;;;;;;;;;4865478;29;20033;-94
2023/04/26 02:22:30;;;;;;;12.85;5.63;;;;;;;;;;4867836;29;20158;-96
2023/04/26 02:24:56;;;;;;;12.65;5.38;;;;;;;;;;4857740;29;20029;-93
2023/04/26 02:28:00;;;;;;;13.32;5.43;;;;;;;;;;4872168;29;20033;-94
2023/04/26 02:33:25;;;;;;;10.88;5.13;;;;;;;;;;4807887;29;20039;-94
2023/04/26 02:36:11;;;;;;;15.30;5.80;;;;;;;;;;4804520;29;20082;-96
2023/04/26 02:39:19;;;;;;;;;;;;;;;;;;;;;
2023/04/26 02:41:46;;;;;;;14.15;5.93;;;;;;;;;;4850309;29;20136;-96
2023/04/26 02:44:38;;;;;;;11.68;7.10;;;;;;;;;;4874281;29;20072;-96
2023/04/26 02:47:19;;;;;;;;;;;;;;;;;;;;;
2023/04/26 02:49:47;;;;;;;14.50;6.68;;;;;;;;;;4881108;29;20094;-92
2023/04/26 02:52:33;;;;;;;15.23;6.57;;;;;;;;;;4852167;29;20037;-96
2023/04/26 02:55:36;;;;;;;12.93;5.53;;;;;;;;;;4858244;29;20045;-95
2023/04/26 02:58:11;;;;;;;12.05;6.40;;;;;;;;;;4869696;29;20064;-95
2023/04/26 03:00:45;;;;;;;18.27;6.05;;;;;;;;;;4863847;29;20033;-91
2023/04/26 03:03:15;;;;;;;15.18;6.32;;;;;;;;;;4868838;29;20033;-95
2023/04/26 03:05:47;;;;;;;15.18;5.53;;;;;;;;;;4850115;29;20030;-95
2023/04/26 03:08:13;;;;;;;11.25;5.50;;;;;;;;;;4848721;29;20037;-94
2023/04/26 03:10:52;;;;;;;11.32;5.03;;;;;;;;;;4856668;29;20092;-95
2023/04/26 03:13:25;;;;;;;11.95;5.50;;;;;;;;;;4868185;29;20033;-91
2023/04/26 03:16:09;;;;;;;;;;;;;;;;;;;;;
2023/04/26 03:18:44;;;;;;;11.93;4.88;;;;;;;;;;4882451;29;20113;-94
2023/04/26 03:21:31;;;;;;;16.15;5.72;;;;;;;;;;4852703;29;20392;-94
2023/04/26 03:23:59;;;;;;;13.25;4.93;;;;;;;;;;4865939;29;20037;-96
2023/04/26 03:26:25;;;;;;;16.20;5.53;;;;;;;;;;4866472;29;20049;-92
2023/04/26 03:29:01;;;;;;;15.90;5.15;;;;;;;;;;4867419;29;20052;-95
2023/04/26 03:31:37;;;;;;;20.48;5.05;;;;;;;;;;4866858;29;20052;-96
2023/04/26 03:34:09;;;;;;;11.88;4.90;;;;;;;;;;4866792;29;20120;-94
2023/04/26 03:37:04;;;;;;;14.40;4.57;;;;;;;;;;4872562;29;20113;-93
2023/04/26 03:39:31;;;;;;;16.73;5.20;;;;;;;;;;4865135;29;20426;-92
2023/04/26 03:41:58;;;;;;;11.23;4.53;;;;;;;;;;4862053;29;20025;-96
2023/04/26 03:44:29;;;;;;;10.32;4.60;;;;;;;;;;4856059;29;20041;-96
2023/04/26 03:46:58;;;;;;;9.55;4.10;;;;;;;;;;4863151;29;20039;-94
2023/04/26 03:49:24;;;;;;;12.50;4.47;;;;;;;;;;4868983;29;20455;-96
2023/04/26 03:55:01;;;;;;;10.90;3.60;;;;;;;;;;4888237;29;20590;-96
2023/04/26 03:57:30;;;;;;;11.45;3.85;;;;;;;;;;4868697;29;20021;-95
2023/04/26 03:59:58;;;;;;;9.90;4.00;;;;;;;;;;4861242;29;20034;-96
2023/04/26 04:02:26;;;;;;;9.85;3.72;;;;;;;;;;4849188;29;20037;-93
2023/04/26 04:05:16;;;;;;;8.15;4.05;;;;;;;;;;4824131;29;20065;-94
2023/04/26 04:07:43;;;;;;;10.32;3.90;;;;;;;;;;4826931;29;20030;-95
2023/04/26 04:10:09;;;;;;;12.32;4.00;;;;;;;;;;4829603;29;20046;-96
2023/04/26 04:21:39;;;;;;;9.07;3.38;;;;;;;;;;4921130;23;20053;-96
2023/04/26 04:24:10;;;;;;;6.40;3.25;;;;;;;;;;4903324;29;20045;-96
2023/04/26 04:26:36;;;;;;;11.00;3.42;;;;;;;;;;4872356;29;20767;-93
2023/04/26 04:29:07;;;;;;;9.77;3.50;;;;;;;;;;4879854;29;20029;-96
2023/04/26 04:31:38;;;;;;;5.88;3.60;;;;;;;;;;4909938;29;20049;-95
2023/04/26 04:34:10;;;;;;;8.20;3.50;;;;;;;;;;4892036;29;20029;-96
2023/04/26 04:36:42;;;;;;;11.55;3.58;;;;;;;;;;4891922;29;20025;-95
2023/04/26 04:39:29;;;;;;;10.18;3.30;;;;;;;;;;4886588;29;20039;-95
2023/04/26 04:41:59;;;;;;;9.27;3.33;;;;;;;;;;4871728;29;20038;-95
2023/04/26 04:44:34;;;;;;;12.50;3.80;;;;;;;;;;4872935;29;20033;-96
2023/04/26 04:50:22;;;;;;;16.13;3.30;;;;;;;;;;4897825;29;20029;-94
2023/04/26 04:53:07;;;;;;;10.95;3.38;;;;;;;;;;4893551;29;20052;-96
2023/04/26 04:55:48;;;;;;;9.30;3.15;;;;;;;;;;4894046;29;20021;-95
2023/04/26 04:58:21;;;;;;;6.43;2.60;;;;;;;;;;4890079;29;20073;-96
2023/04/26 05:14:03;;;;;;;10.00;2.38;;;;;;;;;;4842128;29;20063;-95
2023/04/26 05:17:00;;;;;;;8.82;2.50;;;;;;;;;;4859530;29;20034;-96
2023/04/26 05:19:29;;;;;;;9.10;2.25;;;;;;;;;;4882858;23;20057;-96
2023/04/26 05:21:56;;;;;;;6.60;2.47;;;;;;;;;;4883813;29;20042;-94
2023/04/26 05:24:23;;;;;;;6.35;2.47;;;;;;;;;;4885149;29;20034;-94
2023/04/26 05:26:49;;;;;;;7.43;2.20;;;;;;;;;;4879531;29;20205;-95
2023/04/26 05:32:07;;;;;;;5.93;2.22;;;;;;;;;;4917367;23;20057;-96
2023/04/26 05:34:38;;;;;;;8.43;2.75;;;;;;;;;;4895867;29;20068;-95
2023/04/26 08:07:23;;;;;;;5.15;1.63;;;;;;;;;;4861990;29;20118;-95
2023/04/26 08:46:57;;;;;;;3.92;1.75;;;;;;;;;;5541162;23;20060;-94
2023/04/26 09:03:31;;;;;;;6.53;2.10;;;;;;;;;;5599209;23;20090;-95
2023/04/26 09:06:38;;;;;;;;;;;;;;;;;;;;;
2023/04/26 09:09:21;;;;;;;5.10;2.33;;;;;;;;;;4889019;29;20140;-95
2023/04/26 09:12:02;;;;;;;5.70;2.25;;;;;;;;;;4876611;29;20067;-96
2023/04/26 09:14:29;;;;;;;6.15;2.40;;;;;;;;;;4863063;29;20045;-91
2023/04/26 09:17:03;;;;;;;6.95;2.67;;;;;;;;;;4851679;29;20033;-94
2023/04/26 09:22:06;;;;;;;6.10;2.70;;;;;;;;;;4858008;24;20068;-96
2023/04/26 09:24:53;;;;;;;7.75;3.28;;;;;;;;;;4854722;29;20026;-96
2023/04/26 09:27:36;;;;;;;7.85;3.13;;;;;;;;;;4851077;29;20135;-96
2023/04/26 09:30:05;;;;;;;5.15;2.72;;;;;;;;;;4851984;29;20014;-94
2023/04/26 10:39:24;;;;;;;6.70;1.95;;;;;;;;;;4893051;29;20374;-93
2023/04/26 10:45:43;;;;;;;5.10;2.00;;;;;;;;;;4894641;29;20069;-95
2023/04/26 10:51:11;;;;;;;7.03;2.47;;;;;;;;;;4854422;29;20058;-94
2023/04/26 10:53:47;;;;;;;6.32;2.13;;;;;;;;;;4890819;29;20032;-95
2023/04/26 10:56:32;;;;;;;6.30;2.47;;;;;;;;;;4895020;29;20037;-93
2023/04/26 10:59:36;;;;;;;4.13;1.83;;;;;;;;;;4890686;29;20044;-94
2023/04/26 11:05:29;;;;;;;4.47;2.10;;;;;;;;;;5196384;23;20068;-95
2023/04/26 11:08:15;;;;;;;4.15;2.00;;;;;;;;;;4895151;29;20037;-96
2023/04/26 11:16:25;;;;;;;5.18;1.80;;;;;;;;;;4893547;29;20077;-96
2023/04/26 11:19:05;;;;;;;6.18;1.95;;;;;;;;;;4994991;23;20066;-95
2023/04/26 11:21:36;;;;;;;3.88;1.92;;;;;;;;;;4865337;29;20022;-96
2023/04/26 11:24:02;;;;;;;4.07;1.70;;;;;;;;;;4875356;29;20081;-92
2023/04/26 11:35:25;;;;;;;8.10;2.75;;;;;;;;;;5025325;23;20060;-96
2023/04/26 11:43:08;;;;;;;4.70;2.60;;;;;;;;;;5344299;23;20057;-94
2023/04/26 11:46:12;;;;;;;4.95;2.17;;;;;;;;;;4902477;29;20029;-96
2023/04/26 11:52:28;;;;;;;7.53;4.05;;;;;;;;;;4873901;29;20317;-96
2023/04/26 11:58:18;;;;;;;7.90;3.28;;;;;;;;;;4893867;29;20788;-94
2023/04/26 12:01:00;;;;;;;9.73;4.55;;;;;;;;;;4885557;29;20551;-93
2023/04/26 12:06:51;;;;;;;4.10;2.10;;;;;;;;;;5497111;23;20068;-93
2023/04/26 12:09:32;;;;;;;11.75;5.80;;;;;;;;;;4881251;29;20037;-93
2023/04/26 12:21:15;;;;;;;9.77;4.50;;;;;;;;;;4889688;23;20117;-94
2023/04/26 12:23:46;;;;;;;7.65;3.33;;;;;;;;;;4880909;29;20033;-92
2023/04/26 12:26:12;;;;;;;6.00;2.53;;;;;;;;;;4879988;29;20029;-93
2023/04/26 12:28:40;;;;;;;5.70;2.40;;;;;;;;;;4901532;29;20025;-93
2023/04/26 12:31:07;;;;;;;4.00;2.25;;;;;;;;;;4903836;29;20045;-92
2023/04/26 12:36:57;;;;;;;4.30;2.10;;;;;;;;;;4883339;29;20116;-95
2023/04/26 12:39:23;;;;;;;5.10;2.40;;;;;;;;;;4890225;29;20017;-92
2023/04/26 12:42:17;;;;;;;4.07;2.00;;;;;;;;;;4890263;29;20037;-92
2023/04/26 12:48:16;;;;;;;7.57;2.60;;;;;;;;;;5675924;23;20067;-93
2023/04/26 12:50:43;;;;;;;4.13;2.22;;;;;;;;;;4888650;29;20056;-94
2023/04/26 12:53:12;;;;;;;4.05;2.05;;;;;;;;;;4895725;29;20037;-93
2023/04/26 12:55:39;;;;;;;2.92;1.67;;;;;;;;;;4895557;29;20025;-94
2023/04/26 13:23:31;;;;;;;5.55;1.83;;;;;;;;;;5010941;23;20077;-95
2023/04/26 13:31:08;;;;;;;4.38;1.80;;;;;;;;;;5457164;23;20035;-93
2023/04/26 13:42:17;;;;;;;5.43;1.77;;;;;;;;;;5287015;23;20079;-94
2023/04/26 13:45:08;;;;;;;4.22;1.80;;;;;;;;;;4899668;29;20044;-93
2023/04/26 13:50:10;;;;;;;5.55;2.03;;;;;;;;;;5119814;23;20041;-94
2023/04/26 13:52:36;;;;;;;4.13;1.70;;;;;;;;;;4904777;29;20518;-95
2023/04/26 13:55:04;;;;;;;5.22;1.58;;;;;;;;;;4907335;29;20036;-96
2023/04/26 13:57:32;;;;;;;4.28;1.83;;;;;;;;;;4872268;29;20089;-93
2023/04/26 14:00:06;;;;;;;5.43;1.80;;;;;;;;;;4904750;29;20041;-96
2023/04/26 14:02:32;;;;;;;3.90;1.70;;;;;;;;;;4890169;29;20037;-92
2023/04/26 14:04:59;;;;;;;3.00;1.80;;;;;;;;;;4905290;29;20045;-92
2023/04/26 14:07:25;;;;;;;7.25;2.40;;;;;;;;;;4901240;29;20033;-93
2023/04/26 14:09:57;;;;;;;6.88;2.00;;;;;;;;;;4884566;29;20041;-95
2023/04/26 14:12:34;;;;;;;4.55;1.90;;;;;;;;;;4920579;29;20088;-93
2023/04/26 14:15:04;;;;;;;5.85;2.15;;;;;;;;;;4910617;29;20040;-96
2023/04/26 14:17:36;;;;;;;5.40;1.90;;;;;;;;;;4910934;29;20145;-95
2023/04/26 14:23:25;;;;;;;6.50;2.28;;;;;;;;;;4878276;29;20045;-95
2023/04/26 14:26:14;;;;;;;3.97;2.08;;;;;;;;;;4893392;29;20033;-93
2023/04/26 14:28:40;;;;;;;4.57;1.88;;;;;;;;;;4890242;29;20091;-93
2023/04/26 14:31:06;;;;;;;5.28;2.00;;;;;;;;;;4892530;29;20120;-92
2023/04/26 14:33:35;;;;;;;4.10;1.67;;;;;;;;;;4907734;29;20037;-95
2023/04/26 14:36:04;;;;;;;3.55;1.80;;;;;;;;;;4904798;29;20483;-93
2023/04/26 14:38:32;;;;;;;5.63;2.10;;;;;;;;;;4911055;29;20009;-92
2023/04/26 14:40:58;;;;;;;4.28;2.00;;;;;;;;;;4895917;29;20037;-93
2023/04/26 14:43:35;;;;;;;5.40;2.00;;;;;;;;;;4901414;29;20025;-93
2023/04/26 14:46:06;;;;;;;5.30;1.90;;;;;;;;;;4901961;29;20037;-93
2023/04/26 14:48:40;;;;;;;10.75;2.10;;;;;;;;;;4906841;29;20029;-96
2023/04/26 14:51:09;;;;;;;3.72;1.65;;;;;;;;;;4944863;23;20080;-93
2023/04/26 14:56:50;;;;;;;4.72;2.03;;;;;;;;;;4844175;29;20043;-92
2023/04/26 15:02:20;;;;;;;5.38;2.20;;;;;;;;;;5086631;23;20048;-92
2023/04/26 15:04:49;;;;;;;6.75;2.17;;;;;;;;;;4905745;29;20036;-94
2023/04/26 15:07:18;;;;;;;6.00;2.17;;;;;;;;;;4906391;29;20037;-92
2023/04/26 15:09:47;;;;;;;5.03;2.67;;;;;;;;;;4907798;29;20086;-92
2023/04/26 15:12:13;;;;;;;7.97;2.22;;;;;;;;;;4904517;29;20025;-94
2023/04/26 15:14:39;;;;;;;6.55;2.30;;;;;;;;;;4903560;29;20033;-93
2023/04/26 15:17:29;;;;;;;4.38;2.40;;;;;;;;;;4910243;29;20033;-94
2023/04/26 15:19:55;;;;;;;6.97;2.33;;;;;;;;;;4890074;29;20499;-93
2023/04/26 15:22:21;;;;;;;6.22;2.45;;;;;;;;;;4893035;29;20056;-93
2023/04/26 15:24:49;;;;;;;5.28;2.65;;;;;;;;;;5134180;23;20071;-94
2023/04/26 15:27:18;;;;;;;4.25;2.10;;;;;;;;;;4906068;29;20025;-93
2023/04/26 15:30:21;;;;;;;;;;;;;;;;;;;;;
2023/04/26 15:32:59;;;;;;;6.25;2.20;;;;;;;;;;4864404;29;20097;-94
2023/04/26 15:38:46;;;;;;;4.82;1.90;;;;;;;;;;4879637;29;20070;-95
2023/04/26 15:47:03;;;;;;;6.10;2.00;;;;;;;;;;4971722;23;20064;-91
2023/04/26 15:50:11;;;;;;;6.75;2.13;;;;;;;;;;4864819;29;20327;-95
2023/04/26 15:53:03;;;;;;;;;;;;;;;;;;;;;
2023/04/26 15:55:33;;;;;;;5.43;1.98;;;;;;;;;;4850654;29;20124;-95
2023/04/26 15:58:08;;;;;;;4.60;2.22;;;;;;;;;;4873916;29;20025;-93
2023/04/26 16:00:37;;;;;;;7.47;2.50;;;;;;;;;;4868829;29;20030;-96
2023/04/26 16:03:03;;;;;;;4.25;1.88;;;;;;;;;;4865900;29;20033;-94
2023/04/26 16:05:30;;;;;;;3.88;1.85;;;;;;;;;;4864078;29;20490;-93
2023/04/26 16:07:56;;;;;;;6.45;2.00;;;;;;;;;;4867232;29;20054;-95
2023/04/26 16:10:25;;;;;;;7.40;2.33;;;;;;;;;;4875488;29;20093;-93
2023/04/26 16:13:04;;;;;;;5.22;2.22;;;;;;;;;;4882109;29;20048;-93
2023/04/26 16:15:47;;;;;;;6.28;2.53;;;;;;;;;;4883989;29;20444;-94
2023/04/26 16:18:29;;;;;;;4.90;2.50;;;;;;;;;;4885058;29;20046;-93
2023/04/26 16:24:47;;;;;;;4.18;2.10;;;;;;;;;;4950396;23;20064;-94
2023/04/26 16:27:29;;;;;;;7.25;2.25;;;;;;;;;;4868908;29;20028;-96
2023/04/26 16:29:55;;;;;;;4.38;2.15;;;;;;;;;;4850644;29;20037;-93
2023/04/26 16:32:21;;;;;;;5.00;1.95;;;;;;;;;;4862846;29;20394;-93
2023/04/26 16:34:47;;;;;;;7.55;2.72;;;;;;;;;;4865015;29;20060;-94
2023/04/26 16:37:14;;;;;;;7.57;3.10;;;;;;;;;;4862773;29;20101;-92
2023/04/26 16:39:40;;;;;;;3.85;2.20;;;;;;;;;;4859236;29;20026;-92
2023/04/26 16:42:21;;;;;;;5.57;2.38;;;;;;;;;;4814872;29;20034;-93
2023/04/26 16:44:47;;;;;;;5.00;2.17;;;;;;;;;;4883901;24;20134;-94
2023/04/26 16:47:14;;;;;;;6.35;2.40;;;;;;;;;;4895585;29;20090;-96
2023/04/26 17:05:48;;;;;;;4.35;2.20;;;;;;;;;;5889372;23;20849;-92
2023/04/26 17:08:17;;;;;;;6.97;2.22;;;;;;;;;;4863755;29;20492;-95
2023/04/26 17:10:47;;;;;;;7.10;2.58;;;;;;;;;;4867686;29;20042;-96
2023/04/26 17:13:13;;;;;;;12.48;3.42;;;;;;;;;;4859643;29;20061;-91
2023/04/26 17:40:24;;;;;;;6.55;2.40;;;;;;;;;;5409123;23;20048;-94
2023/04/26 17:43:02;;;;;;;4.30;2.83;;;;;;;;;;4891807;29;20044;-90
2023/04/26 17:45:50;;;;;;;4.88;2.40;;;;;;;;;;4879413;29;20026;-96
2023/04/26 17:51:17;;;;;;;13.98;4.03;;;;;;;;;;4974254;23;20041;-95
2023/04/26 18:10:22;;;;;;;8.25;3.13;;;;;;;;;;5718028;23;20574;-92
2023/04/26 19:11:47;;;;;;;12.77;7.18;;;;;;;;;;4910207;23;20082;-92
2023/04/26 19:45:23;;;;;;;18.08;10.13;;;;;;;;;;5258023;23;20045;-92
2023/04/26 19:47:52;;;;;;;20.20;10.00;;;;;;;;;;4885620;29;20478;-92
2023/04/26 19:52:55;;;;;;;11.45;6.75;;;;;;;;;;5921359;23;20027;-92
2023/04/26 19:55:49;;;;;;;13.57;8.20;;;;;;;;;;4898460;29;20025;-92
2023/04/26 19:58:19;;;;;;;14.25;7.93;;;;;;;;;;4897982;29;20037;-92
2023/04/26 20:40:59;;;;;;;11.48;5.78;;;;;;;;;;4920970;23;20056;-95
2023/04/26 20:46:43;;;;;;;11.75;6.65;;;;;;;;;;5605480;23;20056;-91
2023/04/26 20:52:19;;;;;;;10.13;6.85;;;;;;;;;;4901325;23;20081;-93
2023/04/26 20:58:17;;;;;;;14.45;7.50;;;;;;;;;;4867330;29;20086;-95
2023/04/26 22:59:33;;;;;;;9.77;6.53;;;;;;;;;;5210142;23;20054;-92
